PWSweather.com
Personal Weather Stations
Station Observations
KMNGREYC2
Grey Cloud Island, Grey Cloud Island, MN 55071

Grey Cloud IslandGrey Cloud Island, MN 55071

Lat: 44.799333, Lon: -92.987851

Elevation: 700

Station Type: Davis VP2

www.jagielski.com/weather/conditions.htm

High Low Average
Temperature 48.1°F8.9°C 22.8°F-5.1°C 32.2°F0.1°C
Dew Point 36.0°F2.2°C 20.8°F-6.2°C 27.8°F-2.3°C
Winds 5.0 mph 8.0 kmh Calm Calm Calm SWCalm SW
Wind Gusts 6.0 mph9.7 kmh -- 2.0 mph3.2 kmh
Humidity 96% 62% 84%
Pressure 29.72 in1006.4 mb 29.66 in1004.4 mb -
Precipitation 0.00 in0.0 mm - -
Hour Temp Dew Point Humidity Winds Wind Gusts Pressure Precip Precip Rate Daily Precip Total
12:00 AM 32.4°F0.2°C 27.5°F-2.5°C 82% Calm Calm 3.0 mph4.8 kmh 29.71 in1006.1 mb 0.00 in0.0 mm 0.00 in0.0 mm 0.00 in0.0 mm
12:15 AM 31.5°F-0.3°C 27.2°F-2.7°C 84% Calm Calm 4.0 mph6.4 kmh 29.71 in1006.1 mb 0.00 in0.0 mm 0.00 in0.0 mm 0.00 in0.0 mm
12:30 AM 31.0°F-0.6°C 27.3°F-2.6°C 86% 2.0 mph SSW3.2 kmh SSW 4.0 mph6.4 kmh 29.70 in1005.8 mb 0.00 in0.0 mm 0.00 in0.0 mm 0.00 in0.0 mm
12:45 AM 30.9°F-0.6°C 27.8°F-2.3°C 88% 1.0 mph SSW1.6 kmh SSW 6.0 mph9.7 kmh 29.68 in1005.1 mb 0.00 in0.0 mm 0.00 in0.0 mm 0.00 in0.0 mm
01:00 AM 31.1°F-0.5°C 28.2°F-2.1°C 89% 1.0 mph SW1.6 kmh SW 6.0 mph9.7 kmh 29.67 in1004.7 mb 0.00 in0.0 mm 0.00 in0.0 mm 0.00 in0.0 mm
01:15 AM 31.6°F-0.2°C 28.7°F-1.8°C 89% Calm Calm 3.0 mph4.8 kmh 29.68 in1005.1 mb 0.00 in0.0 mm 0.00 in0.0 mm 0.00 in0.0 mm
01:30 AM 31.4°F-0.3°C 28.0°F-2.2°C 87% Calm Calm 3.0 mph4.8 kmh 29.68 in1005.1 mb 0.00 in0.0 mm 0.00 in0.0 mm 0.00 in0.0 mm
01:45 AM 30.5°F-0.8°C 26.5°F-3.1°C 85% Calm Calm -- 29.68 in1005.1 mb 0.00 in0.0 mm 0.00 in0.0 mm 0.00 in0.0 mm
02:00 AM 29.7°F-1.3°C 25.8°F-3.4°C 85% Calm Calm -- 29.68 in1005.1 mb 0.00 in0.0 mm 0.00 in0.0 mm 0.00 in0.0 mm
02:15 AM 28.7°F-1.8°C 24.8°F-4.0°C 85% Calm Calm -- 29.70 in1005.8 mb 0.00 in0.0 mm 0.00 in0.0 mm 0.00 in0.0 mm
02:30 AM 28.0°F-2.2°C 24.4°F-4.2°C 86% Calm Calm 1.0 mph1.6 kmh 29.70 in1005.8 mb 0.00 in0.0 mm 0.00 in0.0 mm 0.00 in0.0 mm
02:45 AM 27.3°F-2.6°C 24.0°F-4.4°C 87% Calm Calm 3.0 mph4.8 kmh 29.70 in1005.8 mb 0.00 in0.0 mm 0.00 in0.0 mm 0.00 in0.0 mm
03:00 AM 27.1°F-2.7°C 24.3°F-4.3°C 89% 5.0 mph SW8.0 kmh SW 5.0 mph8.0 kmh 29.71 in1006.1 mb 0.00 in0.0 mm 0.00 in0.0 mm 0.00 in0.0 mm
03:15 AM 28.2°F-2.1°C 26.2°F-3.2°C 92% 3.0 mph SW4.8 kmh SW 5.0 mph8.0 kmh 29.71 in1006.1 mb 0.00 in0.0 mm 0.00 in0.0 mm 0.00 in0.0 mm
03:30 AM 29.2°F-1.6°C 27.2°F-2.7°C 92% 2.0 mph SW3.2 kmh SW 6.0 mph9.7 kmh 29.71 in1006.1 mb 0.00 in0.0 mm 0.00 in0.0 mm 0.00 in0.0 mm
03:45 AM 29.4°F-1.4°C 27.1°F-2.7°C 91% Calm Calm 4.0 mph6.4 kmh 29.71 in1006.1 mb 0.00 in0.0 mm 0.00 in0.0 mm 0.00 in0.0 mm
04:00 AM 29.2°F-1.6°C 26.6°F-3.0°C 90% Calm Calm 4.0 mph6.4 kmh 29.71 in1006.1 mb 0.00 in0.0 mm 0.00 in0.0 mm 0.00 in0.0 mm
04:15 AM 28.7°F-1.8°C 25.9°F-3.4°C 89% Calm Calm -- 29.71 in1006.1 mb 0.00 in0.0 mm 0.00 in0.0 mm 0.00 in0.0 mm
04:30 AM 28.0°F-2.2°C 25.2°F-3.8°C 89% Calm Calm 1.0 mph1.6 kmh 29.70 in1005.8 mb 0.00 in0.0 mm 0.00 in0.0 mm 0.00 in0.0 mm
04:45 AM 27.2°F-2.7°C 24.1°F-4.4°C 88% Calm Calm -- 29.70 in1005.8 mb 0.00 in0.0 mm 0.00 in0.0 mm 0.00 in0.0 mm
05:00 AM 26.6°F-3.0°C 23.5°F-4.7°C 88% Calm Calm -- 29.70 in1005.8 mb 0.00 in0.0 mm 0.00 in0.0 mm 0.00 in0.0 mm
05:15 AM 26.0°F-3.3°C 22.9°F-5.1°C 88% Calm Calm -- 29.69 in1005.4 mb 0.00 in0.0 mm 0.00 in0.0 mm 0.00 in0.0 mm
05:30 AM 25.5°F-3.6°C 22.5°F-5.3°C 88% Calm Calm -- 29.69 in1005.4 mb 0.00 in0.0 mm 0.00 in0.0 mm 0.00 in0.0 mm
05:45 AM 25.1°F-3.8°C 22.1°F-5.5°C 88% Calm Calm -- 29.69 in1005.4 mb 0.00 in0.0 mm 0.00 in0.0 mm 0.00 in0.0 mm
06:00 AM 24.7°F-4.1°C 21.9°F-5.6°C 89% Calm Calm 2.0 mph3.2 kmh 29.69 in1005.4 mb 0.00 in0.0 mm 0.00 in0.0 mm 0.00 in0.0 mm
06:15 AM 24.4°F-4.2°C 21.6°F-5.8°C 89% Calm Calm -- 29.68 in1005.1 mb 0.00 in0.0 mm 0.00 in0.0 mm 0.00 in0.0 mm
06:30 AM 24.1°F-4.4°C 21.3°F-5.9°C 89% Calm Calm 2.0 mph3.2 kmh 29.68 in1005.1 mb 0.00 in0.0 mm 0.00 in0.0 mm 0.00 in0.0 mm
06:45 AM 23.9°F-4.5°C 21.4°F-5.9°C 90% Calm Calm 1.0 mph1.6 kmh 29.68 in1005.1 mb 0.00 in0.0 mm 0.00 in0.0 mm 0.00 in0.0 mm
07:00 AM 23.7°F-4.6°C 21.2°F-6.0°C 90% Calm Calm 1.0 mph1.6 kmh 29.68 in1005.1 mb 0.00 in0.0 mm 0.00 in0.0 mm 0.00 in0.0 mm
07:15 AM 23.6°F-4.7°C 21.4°F-5.9°C 91% Calm Calm 1.0 mph1.6 kmh 29.68 in1005.1 mb 0.00 in0.0 mm 0.00 in0.0 mm 0.00 in0.0 mm
07:30 AM 23.5°F-4.7°C 21.3°F-5.9°C 91% Calm Calm 1.0 mph1.6 kmh 29.69 in1005.4 mb 0.00 in0.0 mm 0.00 in0.0 mm 0.00 in0.0 mm
07:45 AM 23.3°F-4.8°C 21.1°F-6.1°C 91% Calm Calm 1.0 mph1.6 kmh 29.68 in1005.1 mb 0.00 in0.0 mm 0.00 in0.0 mm 0.00 in0.0 mm
08:00 AM 23.1°F-4.9°C 20.9°F-6.2°C 91% Calm Calm 1.0 mph1.6 kmh 29.68 in1005.1 mb 0.00 in0.0 mm 0.00 in0.0 mm 0.00 in0.0 mm
08:15 AM 22.9°F-5.1°C 20.9°F-6.2°C 92% Calm Calm 1.0 mph1.6 kmh 29.69 in1005.4 mb 0.00 in0.0 mm 0.00 in0.0 mm 0.00 in0.0 mm
08:30 AM 22.9°F-5.1°C 20.9°F-6.2°C 92% Calm Calm 1.0 mph1.6 kmh 29.69 in1005.4 mb 0.00 in0.0 mm 0.00 in0.0 mm 0.00 in0.0 mm
08:45 AM 22.9°F-5.1°C 20.9°F-6.2°C 92% Calm Calm -- 29.69 in1005.4 mb 0.00 in0.0 mm 0.00 in0.0 mm 0.00 in0.0 mm
09:00 AM 22.8°F-5.1°C 20.8°F-6.2°C 92% Calm Calm -- 29.69 in1005.4 mb 0.00 in0.0 mm 0.00 in0.0 mm 0.00 in0.0 mm
09:15 AM 22.8°F-5.1°C 20.8°F-6.2°C 92% Calm Calm -- 29.69 in1005.4 mb 0.00 in0.0 mm 0.00 in0.0 mm 0.00 in0.0 mm
09:30 AM 22.9°F-5.1°C 20.9°F-6.2°C 92% Calm Calm 1.0 mph1.6 kmh 29.71 in1006.1 mb 0.00 in0.0 mm 0.00 in0.0 mm 0.00 in0.0 mm
09:45 AM 23.1°F-4.9°C 21.4°F-5.9°C 93% Calm Calm -- 29.70 in1005.8 mb 0.00 in0.0 mm 0.00 in0.0 mm 0.00 in0.0 mm
10:00 AM 23.8°F-4.6°C 22.3°F-5.4°C 94% Calm Calm -- 29.71 in1006.1 mb 0.00 in0.0 mm 0.00 in0.0 mm 0.00 in0.0 mm
10:15 AM 24.2°F-4.3°C 22.7°F-5.2°C 94% Calm Calm -- 29.71 in1006.1 mb 0.00 in0.0 mm 0.00 in0.0 mm 0.00 in0.0 mm
10:30 AM 24.9°F-3.9°C 23.4°F-4.8°C 94% Calm Calm -- 29.71 in1006.1 mb 0.00 in0.0 mm 0.00 in0.0 mm 0.00 in0.0 mm
10:45 AM 26.1°F-3.3°C 24.9°F-3.9°C 95% Calm Calm -- 29.71 in1006.1 mb 0.00 in0.0 mm 0.00 in0.0 mm 0.00 in0.0 mm
11:00 AM 27.6°F-2.4°C 26.6°F-3.0°C 96% Calm Calm 1.0 mph1.6 kmh 29.71 in1006.1 mb 0.00 in0.0 mm 0.00 in0.0 mm 0.00 in0.0 mm
11:15 AM 29.7°F-1.3°C 28.7°F-1.8°C 96% Calm Calm 4.0 mph6.4 kmh 29.71 in1006.1 mb 0.00 in0.0 mm 0.00 in0.0 mm 0.00 in0.0 mm
11:30 AM 31.9°F-0.1°C 30.9°F-0.6°C 96% Calm Calm 4.0 mph6.4 kmh 29.72 in1006.4 mb 0.00 in0.0 mm 0.00 in0.0 mm 0.00 in0.0 mm
11:45 AM 34.4°F1.3°C 33.4°F0.8°C 96% 2.0 mph SW3.2 kmh SW 4.0 mph6.4 kmh 29.72 in1006.4 mb 0.00 in0.0 mm 0.00 in0.0 mm 0.00 in0.0 mm
12:00 PM 36.6°F2.6°C 34.2°F1.2°C 91% Calm Calm 4.0 mph6.4 kmh 29.72 in1006.4 mb 0.00 in0.0 mm 0.00 in0.0 mm 0.00 in0.0 mm
12:15 PM 38.3°F3.5°C 33.3°F0.7°C 82% Calm Calm 3.0 mph4.8 kmh 29.71 in1006.1 mb 0.00 in0.0 mm 0.00 in0.0 mm 0.00 in0.0 mm
12:30 PM 39.7°F4.3°C 33.4°F0.8°C 78% 1.0 mph SW1.6 kmh SW 3.0 mph4.8 kmh 29.71 in1006.1 mb 0.00 in0.0 mm 0.00 in0.0 mm 0.00 in0.0 mm
12:45 PM 40.7°F4.8°C 33.4°F0.8°C 75% 1.0 mph SW1.6 kmh SW 3.0 mph4.8 kmh 29.71 in1006.1 mb 0.00 in0.0 mm 0.00 in0.0 mm 0.00 in0.0 mm
01:00 PM 41.4°F5.2°C 33.4°F0.8°C 73% 1.0 mph SW1.6 kmh SW 3.0 mph4.8 kmh 29.70 in1005.8 mb 0.00 in0.0 mm 0.00 in0.0 mm 0.00 in0.0 mm
01:15 PM 41.7°F5.4°C 33.4°F0.8°C 72% 1.0 mph SW1.6 kmh SW 2.0 mph3.2 kmh 29.69 in1005.4 mb 0.00 in0.0 mm 0.00 in0.0 mm 0.00 in0.0 mm
01:30 PM 42.0°F5.6°C 33.3°F0.7°C 71% Calm Calm 3.0 mph4.8 kmh 29.69 in1005.4 mb 0.00 in0.0 mm 0.00 in0.0 mm 0.00 in0.0 mm
01:45 PM 42.4°F5.8°C 33.7°F0.9°C 71% Calm Calm 4.0 mph6.4 kmh 29.69 in1005.4 mb 0.00 in0.0 mm 0.00 in0.0 mm 0.00 in0.0 mm
02:00 PM 42.7°F5.9°C 33.6°F0.9°C 70% Calm Calm 4.0 mph6.4 kmh 29.68 in1005.1 mb 0.00 in0.0 mm 0.00 in0.0 mm 0.00 in0.0 mm
02:15 PM 43.4°F6.3°C 33.6°F0.9°C 68% 2.0 mph SW3.2 kmh SW 4.0 mph6.4 kmh 29.68 in1005.1 mb 0.00 in0.0 mm 0.00 in0.0 mm 0.00 in0.0 mm
02:30 PM 44.0°F6.7°C 34.1°F1.2°C 68% Calm Calm 4.0 mph6.4 kmh 29.67 in1004.7 mb 0.00 in0.0 mm 0.00 in0.0 mm 0.00 in0.0 mm
02:45 PM 44.5°F6.9°C 34.2°F1.2°C 67% 1.0 mph SW1.6 kmh SW 5.0 mph8.0 kmh 29.67 in1004.7 mb 0.00 in0.0 mm 0.00 in0.0 mm 0.00 in0.0 mm
03:00 PM 45.2°F7.3°C 34.5°F1.4°C 66% 1.0 mph SW1.6 kmh SW 5.0 mph8.0 kmh 29.67 in1004.7 mb 0.00 in0.0 mm 0.00 in0.0 mm 0.00 in0.0 mm
03:15 PM 45.6°F7.6°C 34.9°F1.6°C 66% Calm Calm 2.0 mph3.2 kmh 29.67 in1004.7 mb 0.00 in0.0 mm 0.00 in0.0 mm 0.00 in0.0 mm
03:30 PM 46.5°F8.1°C 35.4°F1.9°C 65% Calm Calm 3.0 mph4.8 kmh 29.66 in1004.4 mb 0.00 in0.0 mm 0.00 in0.0 mm 0.00 in0.0 mm
03:45 PM 47.2°F8.4°C 35.7°F2.1°C 64% Calm Calm 3.0 mph4.8 kmh 29.66 in1004.4 mb 0.00 in0.0 mm 0.00 in0.0 mm 0.00 in0.0 mm
04:00 PM 47.6°F8.7°C 36.0°F2.2°C 64% Calm Calm 3.0 mph4.8 kmh 29.67 in1004.7 mb 0.00 in0.0 mm 0.00 in0.0 mm 0.00 in0.0 mm
04:15 PM 48.1°F8.9°C 35.7°F2.1°C 62% Calm Calm 1.0 mph1.6 kmh 29.67 in1004.7 mb 0.00 in0.0 mm 0.00 in0.0 mm 0.00 in0.0 mm
04:30 PM 47.8°F8.8°C 35.8°F2.1°C 63% Calm Calm 3.0 mph4.8 kmh 29.66 in1004.4 mb 0.00 in0.0 mm 0.00 in0.0 mm 0.00 in0.0 mm
04:45 PM 47.0°F8.3°C 35.5°F1.9°C 64% Calm Calm 2.0 mph3.2 kmh 29.66 in1004.4 mb 0.00 in0.0 mm 0.00 in0.0 mm 0.00 in0.0 mm
05:00 PM 45.3°F7.4°C 34.2°F1.2°C 65% Calm Calm 2.0 mph3.2 kmh 29.67 in1004.7 mb 0.00 in0.0 mm 0.00 in0.0 mm 0.00 in0.0 mm
05:15 PM 43.8°F6.6°C 33.6°F0.9°C 67% Calm Calm -- 29.67 in1004.7 mb 0.00 in0.0 mm 0.00 in0.0 mm 0.00 in0.0 mm
05:30 PM 41.9°F5.5°C 32.5°F0.3°C 69% Calm Calm 2.0 mph3.2 kmh 29.66 in1004.4 mb 0.00 in0.0 mm 0.00 in0.0 mm 0.00 in0.0 mm
05:45 PM 40.5°F4.7°C 31.9°F-0.1°C 71% 1.0 mph SW1.6 kmh SW 2.0 mph3.2 kmh 29.66 in1004.4 mb 0.00 in0.0 mm 0.00 in0.0 mm 0.00 in0.0 mm
06:00 PM 39.0°F3.9°C 31.8°F-0.1°C 75% 2.0 mph SW3.2 kmh SW 3.0 mph4.8 kmh 29.66 in1004.4 mb 0.00 in0.0 mm 0.00 in0.0 mm 0.00 in0.0 mm
06:15 PM 38.1°F3.4°C 31.5°F-0.3°C 77% Calm Calm 3.0 mph4.8 kmh 29.67 in1004.7 mb 0.00 in0.0 mm 0.00 in0.0 mm 0.00 in0.0 mm
06:30 PM 37.3°F2.9°C 31.1°F-0.5°C 78% 1.0 mph SW1.6 kmh SW 3.0 mph4.8 kmh 29.67 in1004.7 mb 0.00 in0.0 mm 0.00 in0.0 mm 0.00 in0.0 mm
06:45 PM 36.2°F2.3°C 30.0°F-1.1°C 78% Calm Calm 1.0 mph1.6 kmh 29.67 in1004.7 mb 0.00 in0.0 mm 0.00 in0.0 mm 0.00 in0.0 mm
07:00 PM 35.3°F1.8°C 29.5°F-1.4°C 79% Calm Calm 1.0 mph1.6 kmh 29.67 in1004.7 mb 0.00 in0.0 mm 0.00 in0.0 mm 0.00 in0.0 mm
07:15 PM 34.2°F1.2°C 28.7°F-1.8°C 80% Calm Calm 1.0 mph1.6 kmh 29.67 in1004.7 mb 0.00 in0.0 mm 0.00 in0.0 mm 0.00 in0.0 mm
07:30 PM 33.4°F0.8°C 28.2°F-2.1°C 81% Calm Calm 1.0 mph1.6 kmh 29.67 in1004.7 mb 0.00 in0.0 mm 0.00 in0.0 mm 0.00 in0.0 mm
07:45 PM 32.5°F0.3°C 27.6°F-2.4°C 82% Calm Calm -- 29.67 in1004.7 mb 0.00 in0.0 mm 0.00 in0.0 mm 0.00 in0.0 mm
08:00 PM 31.9°F-0.1°C 27.6°F-2.4°C 84% Calm Calm -- 29.67 in1004.7 mb 0.00 in0.0 mm 0.00 in0.0 mm 0.00 in0.0 mm
08:15 PM 31.3°F-0.4°C 27.0°F-2.8°C 84% Calm Calm -- 29.67 in1004.7 mb 0.00 in0.0 mm 0.00 in0.0 mm 0.00 in0.0 mm
08:30 PM 30.8°F-0.7°C 26.8°F-2.9°C 85% Calm Calm -- 29.67 in1004.7 mb 0.00 in0.0 mm 0.00 in0.0 mm 0.00 in0.0 mm
08:45 PM 30.4°F-0.9°C 26.4°F-3.1°C 85% Calm Calm -- 29.67 in1004.7 mb 0.00 in0.0 mm 0.00 in0.0 mm 0.00 in0.0 mm
09:00 PM 29.9°F-1.2°C 26.2°F-3.2°C 86% Calm Calm -- 29.67 in1004.7 mb 0.00 in0.0 mm 0.00 in0.0 mm 0.00 in0.0 mm
09:15 PM 29.6°F-1.3°C 25.9°F-3.4°C 86% Calm Calm -- 29.67 in1004.7 mb 0.00 in0.0 mm 0.00 in0.0 mm 0.00 in0.0 mm
09:30 PM 29.2°F-1.6°C 25.8°F-3.4°C 87% Calm Calm 2.0 mph3.2 kmh 29.67 in1004.7 mb 0.00 in0.0 mm 0.00 in0.0 mm 0.00 in0.0 mm
09:45 PM 28.8°F-1.8°C 26.0°F-3.3°C 89% Calm Calm 3.0 mph4.8 kmh 29.69 in1005.4 mb 0.00 in0.0 mm 0.00 in0.0 mm 0.00 in0.0 mm
10:00 PM 28.7°F-1.8°C 26.1°F-3.3°C 90% Calm Calm 4.0 mph6.4 kmh 29.69 in1005.4 mb 0.00 in0.0 mm 0.00 in0.0 mm 0.00 in0.0 mm
10:15 PM 29.0°F-1.7°C 26.7°F-2.9°C 91% 1.0 mph WNW1.6 kmh WNW 5.0 mph8.0 kmh 29.68 in1005.1 mb 0.00 in0.0 mm 0.00 in0.0 mm 0.00 in0.0 mm
10:30 PM 29.4°F-1.4°C 27.4°F-2.6°C 92% Calm Calm 5.0 mph8.0 kmh 29.68 in1005.1 mb 0.00 in0.0 mm 0.00 in0.0 mm 0.00 in0.0 mm
10:45 PM 30.0°F-1.1°C 28.2°F-2.1°C 93% Calm Calm 4.0 mph6.4 kmh 29.69 in1005.4 mb 0.00 in0.0 mm 0.00 in0.0 mm 0.00 in0.0 mm
11:00 PM 30.6°F-0.8°C 29.1°F-1.6°C 94% 1.0 mph WNW1.6 kmh WNW 4.0 mph6.4 kmh 29.68 in1005.1 mb 0.00 in0.0 mm 0.00 in0.0 mm 0.00 in0.0 mm
11:15 PM 30.9°F-0.6°C 29.4°F-1.4°C 94% Calm Calm 1.0 mph1.6 kmh 29.69 in1005.4 mb 0.00 in0.0 mm 0.00 in0.0 mm 0.00 in0.0 mm
11:30 PM 30.8°F-0.7°C 29.0°F-1.7°C 93% Calm Calm 2.0 mph3.2 kmh 29.68 in1005.1 mb 0.00 in0.0 mm 0.00 in0.0 mm 0.00 in0.0 mm
11:45 PM 30.6°F-0.8°C 28.8°F-1.8°C 93% Calm Calm -- 29.68 in1005.1 mb 0.00 in0.0 mm 0.00 in0.0 mm 0.00 in0.0 mm